sensor_id;sensor_type;location;lat;lon;timestamp;temperature;humidity
64620;DHT22;51029;51.058;13.826;2023-04-24T00:01:28;11.50;99.90
64620;DHT22;51029;51.058;13.826;2023-04-24T00:03:55;11.50;99.90
64620;DHT22;51029;51.058;13.826;2023-04-24T00:06:21;11.60;99.90
64620;DHT22;51029;51.058;13.826;2023-04-24T00:08:48;11.60;99.90
64620;DHT22;51029;51.058;13.826;2023-04-24T00:11:14;11.60;99.90
64620;DHT22;51029;51.058;13.826;2023-04-24T00:13:40;11.70;99.90
64620;DHT22;51029;51.058;13.826;2023-04-24T00:16:05;11.70;99.90
64620;DHT22;51029;51.058;13.826;2023-04-24T00:18:31;11.70;99.90
64620;DHT22;51029;51.058;13.826;2023-04-24T00:20:56;11.70;99.90
64620;DHT22;51029;51.058;13.826;2023-04-24T00:23:22;11.80;99.90
64620;DHT22;51029;51.058;13.826;2023-04-24T00:25:47;11.80;99.90
64620;DHT22;51029;51.058;13.826;2023-04-24T00:28:13;11.90;99.90
64620;DHT22;51029;51.058;13.826;2023-04-24T00:30:38;11.80;99.90
64620;DHT22;51029;51.058;13.826;2023-04-24T00:33:05;11.90;99.90
64620;DHT22;51029;51.058;13.826;2023-04-24T00:35:30;11.90;99.90
64620;DHT22;51029;51.058;13.826;2023-04-24T00:37:56;12.00;99.90
64620;DHT22;51029;51.058;13.826;2023-04-24T00:40:22;11.90;99.90
64620;DHT22;51029;51.058;13.826;2023-04-24T00:42:47;11.90;99.90
64620;DHT22;51029;51.058;13.826;2023-04-24T00:45:13;11.90;99.90
64620;DHT22;51029;51.058;13.826;2023-04-24T00:47:40;11.90;99.90
64620;DHT22;51029;51.058;13.826;2023-04-24T00:50:07;11.90;99.90
64620;DHT22;51029;51.058;13.826;2023-04-24T00:52:32;12.00;99.90
64620;DHT22;51029;51.058;13.826;2023-04-24T00:54:58;11.90;99.90
64620;DHT22;51029;51.058;13.826;2023-04-24T00:57:24;12.00;99.90
64620;DHT22;51029;51.058;13.826;2023-04-24T00:59:51;12.10;99.90
64620;DHT22;51029;51.058;13.826;2023-04-24T01:02:17;12.10;99.90
64620;DHT22;51029;51.058;13.826;2023-04-24T01:04:43;12.10;99.90
64620;DHT22;51029;51.058;13.826;2023-04-24T01:07:08;12.10;99.90
64620;DHT22;51029;51.058;13.826;2023-04-24T01:09:38;12.10;99.90
64620;DHT22;51029;51.058;13.826;2023-04-24T01:12:05;12.10;99.90
64620;DHT22;51029;51.058;13.826;2023-04-24T01:14:31;12.10;99.90
64620;DHT22;51029;51.058;13.826;2023-04-24T01:16:56;12.10;99.90
64620;DHT22;51029;51.058;13.826;2023-04-24T01:19:22;12.20;99.90
64620;DHT22;51029;51.058;13.826;2023-04-24T01:21:51;12.20;99.90
64620;DHT22;51029;51.058;13.826;2023-04-24T01:24:19;12.20;99.90
64620;DHT22;51029;51.058;13.826;2023-04-24T01:26:45;12.30;99.90
64620;DHT22;51029;51.058;13.826;2023-04-24T01:29:11;12.40;99.90
64620;DHT22;51029;51.058;13.826;2023-04-24T01:31:38;12.30;99.90
64620;DHT22;51029;51.058;13.826;2023-04-24T01:34:04;12.30;99.90
64620;DHT22;51029;51.058;13.826;2023-04-24T01:36:32;12.20;99.90
64620;DHT22;51029;51.058;13.826;2023-04-24T01:38:58;12.20;99.90
64620;DHT22;51029;51.058;13.826;2023-04-24T01:41:24;12.20;99.90
64620;DHT22;51029;51.058;13.826;2023-04-24T01:43:50;12.20;99.90
64620;DHT22;51029;51.058;13.826;2023-04-24T01:46:16;12.20;99.90
64620;DHT22;51029;51.058;13.826;2023-04-24T01:48:42;12.20;99.90
64620;DHT22;51029;51.058;13.826;2023-04-24T01:51:07;12.20;99.90
64620;DHT22;51029;51.058;13.826;2023-04-24T01:53:33;12.20;99.90
64620;DHT22;51029;51.058;13.826;2023-04-24T01:55:58;12.10;99.90
64620;DHT22;51029;51.058;13.826;2023-04-24T01:58:24;12.00;99.90
64620;DHT22;51029;51.058;13.826;2023-04-24T02:00:50;12.10;99.90
64620;DHT22;51029;51.058;13.826;2023-04-24T02:03:15;12.10;99.90
64620;DHT22;51029;51.058;13.826;2023-04-24T02:05:44;12.10;99.90
64620;DHT22;51029;51.058;13.826;2023-04-24T02:08:10;12.10;99.90
64620;DHT22;51029;51.058;13.826;2023-04-24T02:10:35;12.10;99.90
64620;DHT22;51029;51.058;13.826;2023-04-24T02:13:01;12.20;99.90
64620;DHT22;51029;51.058;13.826;2023-04-24T02:15:26;12.20;99.90
64620;DHT22;51029;51.058;13.826;2023-04-24T02:17:52;12.20;99.90
64620;DHT22;51029;51.058;13.826;2023-04-24T02:20:17;12.10;99.90
64620;DHT22;51029;51.058;13.826;2023-04-24T02:22:43;12.10;99.90
64620;DHT22;51029;51.058;13.826;2023-04-24T02:25:09;12.10;99.90
64620;DHT22;51029;51.058;13.826;2023-04-24T02:27:34;12.10;99.90
64620;DHT22;51029;51.058;13.826;2023-04-24T02:30:00;12.10;99.90
64620;DHT22;51029;51.058;13.826;2023-04-24T02:32:25;12.10;99.90
64620;DHT22;51029;51.058;13.826;2023-04-24T02:34:51;12.10;99.90
64620;DHT22;51029;51.058;13.826;2023-04-24T02:37:17;12.10;99.90
64620;DHT22;51029;51.058;13.826;2023-04-24T02:39:42;12.10;99.90
64620;DHT22;51029;51.058;13.826;2023-04-24T02:42:08;12.10;99.90
64620;DHT22;51029;51.058;13.826;2023-04-24T02:44:33;12.00;99.90
64620;DHT22;51029;51.058;13.826;2023-04-24T02:46:59;12.10;99.90
64620;DHT22;51029;51.058;13.826;2023-04-24T02:49:24;12.10;99.90
64620;DHT22;51029;51.058;13.826;2023-04-24T02:51:51;12.10;99.90
64620;DHT22;51029;51.058;13.826;2023-04-24T02:54:16;12.00;99.90
64620;DHT22;51029;51.058;13.826;2023-04-24T02:56:42;11.90;99.90
64620;DHT22;51029;51.058;13.826;2023-04-24T02:59:07;11.90;99.90
64620;DHT22;51029;51.058;13.826;2023-04-24T03:01:33;11.90;99.90
64620;DHT22;51029;51.058;13.826;2023-04-24T03:03:58;11.90;99.90
64620;DHT22;51029;51.058;13.826;2023-04-24T03:06:24;12.00;99.90
64620;DHT22;51029;51.058;13.826;2023-04-24T03:08:49;12.00;99.90
64620;DHT22;51029;51.058;13.826;2023-04-24T03:11:15;12.00;99.90
64620;DHT22;51029;51.058;13.826;2023-04-24T03:13:40;12.00;99.90
64620;DHT22;51029;51.058;13.826;2023-04-24T03:16:06;12.00;99.90
64620;DHT22;51029;51.058;13.826;2023-04-24T03:18:31;11.90;99.90
64620;DHT22;51029;51.058;13.826;2023-04-24T03:20:57;12.00;99.90
64620;DHT22;51029;51.058;13.826;2023-04-24T03:23:23;12.00;99.90
64620;DHT22;51029;51.058;13.826;2023-04-24T03:25:48;12.00;99.90
64620;DHT22;51029;51.058;13.826;2023-04-24T03:28:14;11.90;99.90
64620;DHT22;51029;51.058;13.826;2023-04-24T03:30:39;11.90;99.90
64620;DHT22;51029;51.058;13.826;2023-04-24T03:33:05;11.90;99.90
64620;DHT22;51029;51.058;13.826;2023-04-24T03:35:30;11.90;99.90
64620;DHT22;51029;51.058;13.826;2023-04-24T03:37:56;11.90;99.90
64620;DHT22;51029;51.058;13.826;2023-04-24T03:40:22;11.90;99.90
64620;DHT22;51029;51.058;13.826;2023-04-24T03:42:47;11.90;99.90
64620;DHT22;51029;51.058;13.826;2023-04-24T03:45:13;11.90;99.90
64620;DHT22;51029;51.058;13.826;2023-04-24T03:47:38;11.80;99.90
64620;DHT22;51029;51.058;13.826;2023-04-24T03:50:04;11.90;99.90
64620;DHT22;51029;51.058;13.826;2023-04-24T03:52:29;11.80;99.90
64620;DHT22;51029;51.058;13.826;2023-04-24T03:54:55;11.80;99.90
64620;DHT22;51029;51.058;13.826;2023-04-24T03:57:20;11.80;99.90
64620;DHT22;51029;51.058;13.826;2023-04-24T03:59:46;11.80;99.90
64620;DHT22;51029;51.058;13.826;2023-04-24T04:02:12;11.80;99.90
64620;DHT22;51029;51.058;13.826;2023-04-24T04:04:37;11.80;99.90
64620;DHT22;51029;51.058;13.826;2023-04-24T04:07:03;12.00;99.90
64620;DHT22;51029;51.058;13.826;2023-04-24T04:09:29;12.00;99.90
64620;DHT22;51029;51.058;13.826;2023-04-24T04:11:54;12.10;99.90
64620;DHT22;51029;51.058;13.826;2023-04-24T04:14:21;12.10;99.90
64620;DHT22;51029;51.058;13.826;2023-04-24T04:16:46;12.20;99.90
64620;DHT22;51029;51.058;13.826;2023-04-24T04:19:12;12.20;99.90
64620;DHT22;51029;51.058;13.826;2023-04-24T04:21:37;12.20;99.90
64620;DHT22;51029;51.058;13.826;2023-04-24T04:24:03;12.30;99.90
64620;DHT22;51029;51.058;13.826;2023-04-24T04:26:30;12.40;99.90
64620;DHT22;51029;51.058;13.826;2023-04-24T04:28:58;12.40;99.90
64620;DHT22;51029;51.058;13.826;2023-04-24T04:31:23;12.50;99.90
64620;DHT22;51029;51.058;13.826;2023-04-24T04:33:50;12.50;99.90
64620;DHT22;51029;51.058;13.826;2023-04-24T04:36:15;12.60;99.90
64620;DHT22;51029;51.058;13.826;2023-04-24T04:38:42;12.60;99.90
64620;DHT22;51029;51.058;13.826;2023-04-24T04:41:08;12.70;99.90
64620;DHT22;51029;51.058;13.826;2023-04-24T04:43:33;12.70;99.90
64620;DHT22;51029;51.058;13.826;2023-04-24T04:46:00;12.70;99.90
64620;DHT22;51029;51.058;13.826;2023-04-24T04:48:26;12.80;99.90
64620;DHT22;51029;51.058;13.826;2023-04-24T04:50:52;12.90;99.90
64620;DHT22;51029;51.058;13.826;2023-04-24T04:53:18;12.90;99.90
64620;DHT22;51029;51.058;13.826;2023-04-24T04:55:43;12.90;99.90
64620;DHT22;51029;51.058;13.826;2023-04-24T04:58:09;12.90;99.90
64620;DHT22;51029;51.058;13.826;2023-04-24T05:00:34;12.90;99.90
64620;DHT22;51029;51.058;13.826;2023-04-24T05:03:03;13.00;99.90
64620;DHT22;51029;51.058;13.826;2023-04-24T05:05:28;13.00;99.90
64620;DHT22;51029;51.058;13.826;2023-04-24T05:07:54;13.10;99.90
64620;DHT22;51029;51.058;13.826;2023-04-24T05:10:20;13.20;99.90
64620;DHT22;51029;51.058;13.826;2023-04-24T05:12:45;13.30;99.90
64620;DHT22;51029;51.058;13.826;2023-04-24T05:15:11;13.40;99.90
64620;DHT22;51029;51.058;13.826;2023-04-24T05:17:36;13.50;99.90
64620;DHT22;51029;51.058;13.826;2023-04-24T05:20:03;13.70;99.90
64620;DHT22;51029;51.058;13.826;2023-04-24T05:22:31;13.80;99.90
64620;DHT22;51029;51.058;13.826;2023-04-24T05:24:56;13.90;99.90
64620;DHT22;51029;51.058;13.826;2023-04-24T05:27:22;13.90;99.90
64620;DHT22;51029;51.058;13.826;2023-04-24T05:29:48;13.90;99.90
64620;DHT22;51029;51.058;13.826;2023-04-24T05:32:13;14.00;99.90
64620;DHT22;51029;51.058;13.826;2023-04-24T05:34:39;14.00;99.90
64620;DHT22;51029;51.058;13.826;2023-04-24T05:37:04;14.10;99.90
64620;DHT22;51029;51.058;13.826;2023-04-24T05:39:33;14.10;99.90
64620;DHT22;51029;51.058;13.826;2023-04-24T05:42:00;14.20;99.90
64620;DHT22;51029;51.058;13.826;2023-04-24T05:44:26;14.30;99.90
64620;DHT22;51029;51.058;13.826;2023-04-24T05:46:52;14.30;99.90
64620;DHT22;51029;51.058;13.826;2023-04-24T05:49:17;14.40;99.90
64620;DHT22;51029;51.058;13.826;2023-04-24T05:51:43;14.40;99.90
64620;DHT22;51029;51.058;13.826;2023-04-24T05:54:08;14.50;99.90
64620;DHT22;51029;51.058;13.826;2023-04-24T05:56:34;14.60;99.90
64620;DHT22;51029;51.058;13.826;2023-04-24T05:58:59;14.70;99.90
64620;DHT22;51029;51.058;13.826;2023-04-24T06:01:25;14.80;99.90
64620;DHT22;51029;51.058;13.826;2023-04-24T06:03:50;14.80;99.90
64620;DHT22;51029;51.058;13.826;2023-04-24T06:06:16;14.80;99.90
64620;DHT22;51029;51.058;13.826;2023-04-24T06:08:41;14.90;99.90
64620;DHT22;51029;51.058;13.826;2023-04-24T06:11:09;15.00;99.90
64620;DHT22;51029;51.058;13.826;2023-04-24T06:13:35;15.00;99.90
64620;DHT22;51029;51.058;13.826;2023-04-24T06:16:00;15.00;99.90
64620;DHT22;51029;51.058;13.826;2023-04-24T06:18:26;15.00;99.90
64620;DHT22;51029;51.058;13.826;2023-04-24T06:20:51;15.10;99.90
64620;DHT22;51029;51.058;13.826;2023-04-24T06:23:17;15.10;99.90
64620;DHT22;51029;51.058;13.826;2023-04-24T06:25:42;15.20;99.90
64620;DHT22;51029;51.058;13.826;2023-04-24T06:28:08;15.40;99.90
64620;DHT22;51029;51.058;13.826;2023-04-24T06:30:33;15.50;99.90
64620;DHT22;51029;51.058;13.826;2023-04-24T06:32:59;15.60;99.90
64620;DHT22;51029;51.058;13.826;2023-04-24T06:35:24;15.90;99.90
64620;DHT22;51029;51.058;13.826;2023-04-24T06:37:51;16.00;99.90
64620;DHT22;51029;51.058;13.826;2023-04-24T06:40:16;16.20;99.90
64620;DHT22;51029;51.058;13.826;2023-04-24T06:42:44;16.30;99.90
64620;DHT22;51029;51.058;13.826;2023-04-24T06:45:09;16.30;99.90
64620;DHT22;51029;51.058;13.826;2023-04-24T06:47:35;16.40;99.90
64620;DHT22;51029;51.058;13.826;2023-04-24T06:50:01;16.40;99.90
64620;DHT22;51029;51.058;13.826;2023-04-24T06:52:26;16.60;99.90
64620;DHT22;51029;51.058;13.826;2023-04-24T06:54:52;16.90;99.90
64620;DHT22;51029;51.058;13.826;2023-04-24T06:57:18;17.20;99.90
64620;DHT22;51029;51.058;13.826;2023-04-24T06:59:44;17.30;99.90
64620;DHT22;51029;51.058;13.826;2023-04-24T07:02:09;17.40;99.90
64620;DHT22;51029;51.058;13.826;2023-04-24T07:04:35;17.50;99.90
64620;DHT22;51029;51.058;13.826;2023-04-24T07:07:00;17.60;99.90
64620;DHT22;51029;51.058;13.826;2023-04-24T07:09:26;17.50;99.90
64620;DHT22;51029;51.058;13.826;2023-04-24T07:11:52;17.60;99.90
64620;DHT22;51029;51.058;13.826;2023-04-24T07:14:19;17.70;99.90
64620;DHT22;51029;51.058;13.826;2023-04-24T07:16:45;17.60;99.90
64620;DHT22;51029;51.058;13.826;2023-04-24T07:19:11;17.40;99.90
64620;DHT22;51029;51.058;13.826;2023-04-24T07:21:36;17.70;99.90
64620;DHT22;51029;51.058;13.826;2023-04-24T07:24:02;18.10;99.90
64620;DHT22;51029;51.058;13.826;2023-04-24T07:26:29;18.40;99.90
64620;DHT22;51029;51.058;13.826;2023-04-24T07:28:54;18.60;99.90
64620;DHT22;51029;51.058;13.826;2023-04-24T07:31:20;18.30;99.90
64620;DHT22;51029;51.058;13.826;2023-04-24T07:33:46;18.20;99.90
64620;DHT22;51029;51.058;13.826;2023-04-24T07:36:11;18.30;99.90
64620;DHT22;51029;51.058;13.826;2023-04-24T07:38:47;18.20;99.90
64620;DHT22;51029;51.058;13.826;2023-04-24T07:41:13;18.20;99.90
64620;DHT22;51029;51.058;13.826;2023-04-24T07:43:39;18.30;99.90
64620;DHT22;51029;51.058;13.826;2023-04-24T07:46:05;18.30;99.90
64620;DHT22;51029;51.058;13.826;2023-04-24T07:48:30;18.20;99.90
64620;DHT22;51029;51.058;13.826;2023-04-24T07:50:56;18.20;99.90
64620;DHT22;51029;51.058;13.826;2023-04-24T07:53:22;18.20;99.90
64620;DHT22;51029;51.058;13.826;2023-04-24T07:55:47;18.10;99.90
64620;DHT22;51029;51.058;13.826;2023-04-24T07:58:13;18.20;99.90
64620;DHT22;51029;51.058;13.826;2023-04-24T08:00:38;18.20;99.90
64620;DHT22;51029;51.058;13.826;2023-04-24T08:03:04;18.60;99.90
64620;DHT22;51029;51.058;13.826;2023-04-24T08:05:30;18.70;99.90
64620;DHT22;51029;51.058;13.826;2023-04-24T08:07:56;18.90;99.90
64620;DHT22;51029;51.058;13.826;2023-04-24T08:10:22;18.80;99.90
64620;DHT22;51029;51.058;13.826;2023-04-24T08:12:48;19.10;99.90
64620;DHT22;51029;51.058;13.826;2023-04-24T08:15:13;19.00;99.90
64620;DHT22;51029;51.058;13.826;2023-04-24T08:17:39;18.90;99.90
64620;DHT22;51029;51.058;13.826;2023-04-24T08:20:05;18.30;99.90
64620;DHT22;51029;51.058;13.826;2023-04-24T08:22:35;18.20;99.90
64620;DHT22;51029;51.058;13.826;2023-04-24T08:25:01;18.50;99.90
64620;DHT22;51029;51.058;13.826;2023-04-24T08:27:26;18.60;99.90
64620;DHT22;51029;51.058;13.826;2023-04-24T08:29:57;18.70;99.90
64620;DHT22;51029;51.058;13.826;2023-04-24T08:32:24;18.60;99.90
64620;DHT22;51029;51.058;13.826;2023-04-24T08:34:49;18.80;99.90
64620;DHT22;51029;51.058;13.826;2023-04-24T08:37:15;18.50;99.90
64620;DHT22;51029;51.058;13.826;2023-04-24T08:39:40;18.40;99.90
64620;DHT22;51029;51.058;13.826;2023-04-24T08:42:06;18.20;99.90
64620;DHT22;51029;51.058;13.826;2023-04-24T08:44:34;18.20;99.90
64620;DHT22;51029;51.058;13.826;2023-04-24T08:47:03;18.10;99.90
64620;DHT22;51029;51.058;13.826;2023-04-24T08:49:29;18.10;99.90
64620;DHT22;51029;51.058;13.826;2023-04-24T08:51:56;18.00;99.90
64620;DHT22;51029;51.058;13.826;2023-04-24T08:54:22;17.90;99.90
64620;DHT22;51029;51.058;13.826;2023-04-24T08:56:48;17.70;99.90
64620;DHT22;51029;51.058;13.826;2023-04-24T08:59:17;17.50;99.90
64620;DHT22;51029;51.058;13.826;2023-04-24T09:01:45;17.50;99.90
64620;DHT22;51029;51.058;13.826;2023-04-24T09:04:11;17.70;99.90
64620;DHT22;51029;51.058;13.826;2023-04-24T09:06:39;18.30;99.90
64620;DHT22;51029;51.058;13.826;2023-04-24T09:09:05;18.70;99.90
64620;DHT22;51029;51.058;13.826;2023-04-24T09:11:32;18.90;99.90
64620;DHT22;51029;51.058;13.826;2023-04-24T09:14:01;18.90;99.90
64620;DHT22;51029;51.058;13.826;2023-04-24T09:16:27;19.10;99.90
64620;DHT22;51029;51.058;13.826;2023-04-24T09:18:53;18.80;99.90
64620;DHT22;51029;51.058;13.826;2023-04-24T09:21:21;18.90;99.90
64620;DHT22;51029;51.058;13.826;2023-04-24T09:23:46;18.60;99.90
64620;DHT22;51029;51.058;13.826;2023-04-24T09:26:12;18.60;99.90
64620;DHT22;51029;51.058;13.826;2023-04-24T09:28:40;18.80;99.90
64620;DHT22;51029;51.058;13.826;2023-04-24T09:31:14;19.10;99.90
64620;DHT22;51029;51.058;13.826;2023-04-24T09:33:57;19.10;99.90
64620;DHT22;51029;51.058;13.826;2023-04-24T09:36:31;18.80;99.90
64620;DHT22;51029;51.058;13.826;2023-04-24T09:39:03;18.90;99.90
64620;DHT22;51029;51.058;13.826;2023-04-24T09:41:31;19.20;99.90
64620;DHT22;51029;51.058;13.826;2023-04-24T09:43:57;19.30;99.90
64620;DHT22;51029;51.058;13.826;2023-04-24T09:46:30;19.40;99.90
64620;DHT22;51029;51.058;13.826;2023-04-24T09:48:57;19.00;99.90
64620;DHT22;51029;51.058;13.826;2023-04-24T09:51:36;18.80;99.90
64620;DHT22;51029;51.058;13.826;2023-04-24T09:54:02;18.30;99.90
64620;DHT22;51029;51.058;13.826;2023-04-24T09:56:32;18.10;99.90
64620;DHT22;51029;51.058;13.826;2023-04-24T09:59:07;18.10;99.90
64620;DHT22;51029;51.058;13.826;2023-04-24T10:01:34;18.00;99.90
64620;DHT22;51029;51.058;13.826;2023-04-24T10:04:00;18.10;99.90
64620;DHT22;51029;51.058;13.826;2023-04-24T10:06:34;18.10;99.90
64620;DHT22;51029;51.058;13.826;2023-04-24T10:09:01;17.80;99.90
64620;DHT22;51029;51.058;13.826;2023-04-24T10:11:27;18.00;99.90
64620;DHT22;51029;51.058;13.826;2023-04-24T10:13:53;18.20;99.90
64620;DHT22;51029;51.058;13.826;2023-04-24T10:16:21;18.00;99.90
64620;DHT22;51029;51.058;13.826;2023-04-24T10:18:48;18.10;99.90
64620;DHT22;51029;51.058;13.826;2023-04-24T10:21:14;18.10;99.90
64620;DHT22;51029;51.058;13.826;2023-04-24T10:23:41;18.00;99.90
64620;DHT22;51029;51.058;13.826;2023-04-24T10:26:09;17.90;99.90
64620;DHT22;51029;51.058;13.826;2023-04-24T10:28:36;18.30;99.90
64620;DHT22;51029;51.058;13.826;2023-04-24T10:31:02;18.60;99.90
64620;DHT22;51029;51.058;13.826;2023-04-24T10:33:29;19.20;99.90
64620;DHT22;51029;51.058;13.826;2023-04-24T10:35:56;19.60;99.90
64620;DHT22;51029;51.058;13.826;2023-04-24T10:38:25;20.10;99.90
64620;DHT22;51029;51.058;13.826;2023-04-24T10:40:58;20.30;99.90
64620;DHT22;51029;51.058;13.826;2023-04-24T10:43:33;20.40;99.90
64620;DHT22;51029;51.058;13.826;2023-04-24T10:46:03;20.30;99.90
64620;DHT22;51029;51.058;13.826;2023-04-24T10:48:33;21.00;99.90
64620;DHT22;51029;51.058;13.826;2023-04-24T10:51:01;21.20;99.90
64620;DHT22;51029;51.058;13.826;2023-04-24T10:53:30;20.80;99.90
64620;DHT22;51029;51.058;13.826;2023-04-24T10:58:50;20.30;99.90
64620;DHT22;51029;51.058;13.826;2023-04-24T11:01:24;19.80;99.90
64620;DHT22;51029;51.058;13.826;2023-04-24T11:03:55;19.80;99.90
64620;DHT22;51029;51.058;13.826;2023-04-24T11:06:32;19.40;99.90
64620;DHT22;51029;51.058;13.826;2023-04-24T11:09:06;19.30;99.90
64620;DHT22;51029;51.058;13.826;2023-04-24T11:11:32;19.20;99.90
64620;DHT22;51029;51.058;13.826;2023-04-24T11:16:29;18.30;99.90
64620;DHT22;51029;51.058;13.826;2023-04-24T11:19:02;17.80;99.90
64620;DHT22;51029;51.058;13.826;2023-04-24T11:21:32;17.60;99.90
64620;DHT22;51029;51.058;13.826;2023-04-24T11:24:48;17.50;99.90
64620;DHT22;51029;51.058;13.826;2023-04-24T11:27:17;17.60;99.90
64620;DHT22;51029;51.058;13.826;2023-04-24T11:29:59;17.70;99.90
64620;DHT22;51029;51.058;13.826;2023-04-24T11:34:56;18.20;99.90
64620;DHT22;51029;51.058;13.826;2023-04-24T11:37:23;18.40;99.90
64620;DHT22;51029;51.058;13.826;2023-04-24T11:39:51;18.30;99.90
64620;DHT22;51029;51.058;13.826;2023-04-24T11:42:17;18.00;99.90
64620;DHT22;51029;51.058;13.826;2023-04-24T11:44:43;17.70;99.90
64620;DHT22;51029;51.058;13.826;2023-04-24T11:47:09;17.70;99.90
64620;DHT22;51029;51.058;13.826;2023-04-24T11:49:36;17.80;99.90
64620;DHT22;51029;51.058;13.826;2023-04-24T11:52:03;18.10;99.90
64620;DHT22;51029;51.058;13.826;2023-04-24T11:54:29;18.70;99.90
64620;DHT22;51029;51.058;13.826;2023-04-24T11:56:56;19.50;99.90
64620;DHT22;51029;51.058;13.826;2023-04-24T11:59:21;20.20;99.90
64620;DHT22;51029;51.058;13.826;2023-04-24T12:01:48;20.50;99.90
64620;DHT22;51029;51.058;13.826;2023-04-24T12:04:15;20.70;99.90
64620;DHT22;51029;51.058;13.826;2023-04-24T12:07:00;20.90;99.90
64620;DHT22;51029;51.058;13.826;2023-04-24T12:09:26;23.50;99.90
64620;DHT22;51029;51.058;13.826;2023-04-24T12:11:58;26.10;95.90
64620;DHT22;51029;51.058;13.826;2023-04-24T12:14:24;28.60;81.80
64620;DHT22;51029;51.058;13.826;2023-04-24T12:16:52;28.00;76.50
64620;DHT22;51029;51.058;13.826;2023-04-24T12:19:22;26.10;76.70
64620;DHT22;51029;51.058;13.826;2023-04-24T12:24:26;21.20;92.90
64620;DHT22;51029;51.058;13.826;2023-04-24T12:26:52;19.90;97.30
64620;DHT22;51029;51.058;13.826;2023-04-24T12:29:22;19.30;98.10
64620;DHT22;51029;51.058;13.826;2023-04-24T12:31:48;18.70;99.40
64620;DHT22;51029;51.058;13.826;2023-04-24T12:34:21;18.40;98.60
64620;DHT22;51029;51.058;13.826;2023-04-24T12:36:47;18.10;98.00
64620;DHT22;51029;51.058;13.826;2023-04-24T12:39:19;18.00;98.40
64620;DHT22;51029;51.058;13.826;2023-04-24T12:41:58;17.90;96.80
64620;DHT22;51029;51.058;13.826;2023-04-24T12:44:34;18.40;97.30
64620;DHT22;51029;51.058;13.826;2023-04-24T12:47:03;19.10;94.80
64620;DHT22;51029;51.058;13.826;2023-04-24T12:49:31;22.30;90.20
64620;DHT22;51029;51.058;13.826;2023-04-24T12:51:57;24.70;78.40
64620;DHT22;51029;51.058;13.826;2023-04-24T12:54:22;27.70;63.50
64620;DHT22;51029;51.058;13.826;2023-04-24T12:56:48;27.80;57.00
64620;DHT22;51029;51.058;13.826;2023-04-24T12:59:14;27.30;54.90
64620;DHT22;51029;51.058;13.826;2023-04-24T13:01:40;25.20;57.80
64620;DHT22;51029;51.058;13.826;2023-04-24T13:04:05;23.70;62.50
64620;DHT22;51029;51.058;13.826;2023-04-24T13:06:31;23.10;67.90
64620;DHT22;51029;51.058;13.826;2023-04-24T13:08:56;22.00;70.20
64620;DHT22;51029;51.058;13.826;2023-04-24T13:11:23;21.30;73.00
64620;DHT22;51029;51.058;13.826;2023-04-24T13:13:49;20.50;77.50
64620;DHT22;51029;51.058;13.826;2023-04-24T13:16:15;20.20;80.90
64620;DHT22;51029;51.058;13.826;2023-04-24T13:18:40;20.20;82.60
64620;DHT22;51029;51.058;13.826;2023-04-24T13:21:06;20.20;82.40
64620;DHT22;51029;51.058;13.826;2023-04-24T13:23:32;20.10;81.60
64620;DHT22;51029;51.058;13.826;2023-04-24T13:25:57;20.00;82.70
64620;DHT22;51029;51.058;13.826;2023-04-24T13:28:24;20.50;74.50
64620;DHT22;51029;51.058;13.826;2023-04-24T13:30:50;22.60;66.70
64620;DHT22;51029;51.058;13.826;2023-04-24T13:33:16;22.00;60.00
64620;DHT22;51029;51.058;13.826;2023-04-24T13:35:41;22.40;62.40
64620;DHT22;51029;51.058;13.826;2023-04-24T13:38:07;24.60;55.40
64620;DHT22;51029;51.058;13.826;2023-04-24T13:40:33;27.10;55.60
64620;DHT22;51029;51.058;13.826;2023-04-24T13:42:58;27.80;52.50
64620;DHT22;51029;51.058;13.826;2023-04-24T13:45:24;31.00;44.60
64620;DHT22;51029;51.058;13.826;2023-04-24T13:47:49;32.30;40.50
64620;DHT22;51029;51.058;13.826;2023-04-24T13:50:15;30.60;37.00
64620;DHT22;51029;51.058;13.826;2023-04-24T13:52:40;29.10;37.30
64620;DHT22;51029;51.058;13.826;2023-04-24T13:55:06;27.30;35.80
64620;DHT22;51029;51.058;13.826;2023-04-24T13:57:32;26.20;37.40
64620;DHT22;51029;51.058;13.826;2023-04-24T13:59:58;26.10;38.30
64620;DHT22;51029;51.058;13.826;2023-04-24T14:02:27;26.90;39.40
64620;DHT22;51029;51.058;13.826;2023-04-24T14:04:52;25.80;37.30
64620;DHT22;51029;51.058;13.826;2023-04-24T14:07:18;24.40;38.70
64620;DHT22;51029;51.058;13.826;2023-04-24T14:09:43;25.10;40.90
64620;DHT22;51029;51.058;13.826;2023-04-24T14:12:09;27.50;38.70
64620;DHT22;51029;51.058;13.826;2023-04-24T14:14:35;28.70;36.40
64620;DHT22;51029;51.058;13.826;2023-04-24T14:17:00;27.90;35.70
64620;DHT22;51029;51.058;13.826;2023-04-24T14:19:26;25.20;38.00
64620;DHT22;51029;51.058;13.826;2023-04-24T14:21:51;23.00;40.90
64620;DHT22;51029;51.058;13.826;2023-04-24T14:24:17;21.70;43.90
64620;DHT22;51029;51.058;13.826;2023-04-24T14:26:42;24.50;44.90
64620;DHT22;51029;51.058;13.826;2023-04-24T14:29:08;27.50;39.50
64620;DHT22;51029;51.058;13.826;2023-04-24T14:31:34;27.20;37.20
64620;DHT22;51029;51.058;13.826;2023-04-24T14:33:59;25.50;38.90
64620;DHT22;51029;51.058;13.826;2023-04-24T14:36:25;24.70;40.90
64620;DHT22;51029;51.058;13.826;2023-04-24T14:38:50;22.90;41.30
64620;DHT22;51029;51.058;13.826;2023-04-24T14:41:16;23.10;44.70
64620;DHT22;51029;51.058;13.826;2023-04-24T14:43:42;25.40;42.90
64620;DHT22;51029;51.058;13.826;2023-04-24T14:46:08;26.20;39.80
64620;DHT22;51029;51.058;13.826;2023-04-24T14:48:33;27.60;38.10
64620;DHT22;51029;51.058;13.826;2023-04-24T14:50:58;28.10;36.90
64620;DHT22;51029;51.058;13.826;2023-04-24T14:53:24;27.00;37.90
64620;DHT22;51029;51.058;13.826;2023-04-24T14:55:50;27.10;37.70
64620;DHT22;51029;51.058;13.826;2023-04-24T14:58:15;28.20;36.50
64620;DHT22;51029;51.058;13.826;2023-04-24T15:00:41;26.40;37.80
64620;DHT22;51029;51.058;13.826;2023-04-24T15:03:06;27.10;37.30
64620;DHT22;51029;51.058;13.826;2023-04-24T15:05:32;25.00;39.00
64620;DHT22;51029;51.058;13.826;2023-04-24T15:07:58;25.40;39.60
64620;DHT22;51029;51.058;13.826;2023-04-24T15:10:23;26.10;39.30
64620;DHT22;51029;51.058;13.826;2023-04-24T15:12:50;23.60;40.50
64620;DHT22;51029;51.058;13.826;2023-04-24T15:15:16;24.30;43.00
64620;DHT22;51029;51.058;13.826;2023-04-24T15:17:42;25.10;40.90
64620;DHT22;51029;51.058;13.826;2023-04-24T15:20:08;24.50;40.50
64620;DHT22;51029;51.058;13.826;2023-04-24T15:22:34;24.10;39.90